Time;durP1;ratioP1;P1;durP2;ratioP2;P2;SDS_P1;SDS_P2;PMS_P1;PMS_P2;Temp;Humidity;BMP_temperature;BMP_pressure;BME280_temperature;BME280_humidity;BME280_pressure;Samples;Min_cycle;Max_cycle;Signal;HPM_P1;HPM_P2
2024/01/24 00:00:12;;;;;;;5.18;1.58;;;;;;;12.06;100.00;101218.94;6079428;19;20577;-68
2024/01/24 00:02:17;;;;;;;2.28;1.52;;;;;;;12.07;100.00;101240.88;6080339;19;20011;-68
2024/01/24 00:04:23;;;;;;;2.78;1.65;;;;;;;12.05;100.00;101225.09;6077559;19;20398;-68
2024/01/24 00:06:30;;;;;;;5.53;2.05;;;;;;;11.97;100.00;101236.88;6081201;19;20563;-69
2024/01/24 00:08:35;;;;;;;3.50;2.00;;;;;;;11.94;100.00;101252.81;6082398;19;20014;-69
2024/01/24 00:10:40;;;;;;;5.57;2.47;;;;;;;11.90;100.00;101281.06;6081309;19;20617;-69
2024/01/24 00:12:45;;;;;;;6.47;1.90;;;;;;;11.95;100.00;101241.34;6079635;19;20010;-69
2024/01/24 00:14:51;;;;;;;7.15;2.20;;;;;;;11.91;100.00;101255.56;6079605;19;20561;-71
2024/01/24 00:16:56;;;;;;;5.75;2.28;;;;;;;11.86;100.00;101251.34;6081562;19;20023;-70
2024/01/24 00:18:58;;;;;;;4.40;2.10;;;;;;;11.91;100.00;101274.00;6080962;19;20358;-70
2024/01/24 00:21:04;;;;;;;6.13;2.28;;;;;;;11.91;100.00;101269.59;6088429;19;20578;-69
2024/01/24 00:23:11;;;;;;;4.00;2.20;;;;;;;11.85;100.00;101289.09;6087108;19;20002;-69
2024/01/24 00:25:14;;;;;;;8.43;2.47;;;;;;;11.82;100.00;101256.72;6086900;19;20238;-68
2024/01/24 00:27:19;;;;;;;4.00;2.38;;;;;;;11.81;100.00;101284.84;6084333;19;20009;-69
2024/01/24 00:29:25;;;;;;;3.65;2.08;;;;;;;11.89;100.00;101289.00;6080932;19;20460;-69
2024/01/24 00:31:33;;;;;;;7.10;2.75;;;;;;;11.88;100.00;101276.75;6081676;19;20003;-70
2024/01/24 00:33:38;;;;;;;4.13;2.67;;;;;;;11.84;100.00;101291.78;6085901;19;20003;-70
2024/01/24 00:35:43;;;;;;;4.50;2.38;;;;;;;11.77;100.00;101285.91;6081896;19;20014;-68
2024/01/24 00:37:48;;;;;;;2.67;1.95;;;;;;;11.77;100.00;101272.72;6085535;19;20090;-70
2024/01/24 00:39:56;;;;;;;5.05;2.03;;;;;;;11.77;100.00;101288.53;6085287;19;20026;-70
2024/01/24 00:42:01;;;;;;;3.67;1.83;;;;;;;11.73;100.00;101271.13;6085745;19;20102;-69
2024/01/24 00:44:06;;;;;;;3.88;1.80;;;;;;;11.83;100.00;101276.91;6085828;19;20010;-69
2024/01/24 00:46:11;;;;;;;7.93;2.33;;;;;;;11.83;100.00;101271.63;6081788;19;20020;-71
2024/01/24 00:48:16;;;;;;;3.95;2.50;;;;;;;11.83;100.00;101311.13;6086150;19;20716;-69
2024/01/24 00:50:21;;;;;;;6.32;2.20;;;;;;;11.78;100.00;101287.59;6082156;19;20015;-70
2024/01/24 00:52:26;;;;;;;4.80;2.47;;;;;;;11.78;100.00;101319.19;6079476;19;20007;-70
2024/01/24 00:54:29;;;;;;;10.55;2.65;;;;;;;11.77;100.00;101321.88;6081680;19;20024;-70
2024/01/24 00:56:36;;;;;;;4.78;1.70;;;;;;;11.76;100.00;101297.34;6083528;19;20048;-70
2024/01/24 00:58:41;;;;;;;6.70;1.90;;;;;;;11.72;100.00;101274.69;6085315;19;20031;-71
2024/01/24 01:00:46;;;;;;;4.25;1.65;;;;;;;11.71;100.00;101303.69;6083749;19;20021;-70
2024/01/24 01:02:51;;;;;;;3.63;1.45;;;;;;;11.72;100.00;101261.53;6080148;19;20046;-69
2024/01/24 01:04:57;;;;;;;7.00;2.28;;;;;;;11.69;100.00;101290.59;6083462;19;20010;-70
2024/01/24 01:07:02;;;;;;;5.38;1.60;;;;;;;11.67;100.00;101273.16;6081729;19;20097;-69
2024/01/24 01:09:04;;;;;;;6.15;2.20;;;;;;;11.61;100.00;101255.78;6081566;19;20018;-70
2024/01/24 01:11:09;;;;;;;7.55;2.17;;;;;;;11.62;100.00;101273.31;6083980;19;20026;-69
2024/01/24 01:13:17;;;;;;;3.10;1.73;;;;;;;11.61;100.00;101258.41;6082665;19;20007;-71
2024/01/24 01:15:24;;;;;;;4.60;1.63;;;;;;;11.59;100.00;101274.28;6081771;19;20006;-69
2024/01/24 01:17:29;;;;;;;6.72;2.42;;;;;;;11.57;100.00;101264.72;6084230;19;20022;-69
2024/01/24 01:19:34;;;;;;;7.85;2.05;;;;;;;11.54;100.00;101259.59;6081366;19;20038;-70
2024/01/24 01:21:42;;;;;;;6.85;2.33;;;;;;;11.54;100.00;101244.66;6082608;19;20002;-69
2024/01/24 01:23:49;;;;;;;4.97;1.63;;;;;;;11.61;100.00;101274.22;6082808;19;20413;-69
2024/01/24 01:25:55;;;;;;;3.67;1.63;;;;;;;11.60;100.00;101243.56;6079951;19;20031;-68
2024/01/24 01:28:00;;;;;;;3.22;1.33;;;;;;;11.64;100.00;101245.16;6083822;19;20014;-70
2024/01/24 01:30:09;;;;;;;8.07;2.10;;;;;;;11.68;100.00;101249.38;6081405;19;20041;-70
2024/01/24 01:32:14;;;;;;;9.70;2.53;;;;;;;11.67;100.00;101258.19;6082271;19;20002;-70
2024/01/24 01:34:19;;;;;;;13.68;2.05;;;;;;;11.63;100.00;101254.81;6084583;19;20010;-70
2024/01/24 01:36:24;;;;;;;6.60;1.77;;;;;;;11.63;100.00;101249.53;6081661;19;20221;-70
2024/01/24 01:38:29;;;;;;;10.43;2.83;;;;;;;11.60;100.00;101248.81;6081705;19;20016;-71
2024/01/24 01:40:31;;;;;;;9.55;2.05;;;;;;;11.63;100.00;101246.06;6077247;19;20098;-71
2024/01/24 01:42:36;;;;;;;2.67;1.52;;;;;;;11.61;100.00;101274.22;6080969;19;20018;-70
2024/01/24 01:44:45;;;;;;;6.07;2.47;;;;;;;11.59;100.00;101220.78;6082553;19;20856;-71
2024/01/24 01:46:53;;;;;;;10.02;1.90;;;;;;;11.59;100.00;101263.75;6083699;19;20022;-70
2024/01/24 01:48:57;;;;;;;6.60;2.22;;;;;;;11.57;100.00;101248.94;6081956;19;20038;-69
2024/01/24 01:51:04;;;;;;;4.38;1.80;;;;;;;11.58;100.00;101271.69;6084089;19;20029;-70
2024/01/24 01:53:09;;;;;;;7.18;2.03;;;;;;;11.54;100.00;101238.53;6077557;19;20114;-70
2024/01/24 01:55:15;;;;;;;6.40;1.83;;;;;;;11.55;100.00;101274.47;6083789;19;20023;-70
2024/01/24 01:57:20;;;;;;;7.95;1.80;;;;;;;11.50;100.00;101276.41;6081112;19;20018;-69
2024/01/24 01:59:26;;;;;;;5.18;2.17;;;;;;;11.49;100.00;101264.16;6080446;19;20011;-70
2024/01/24 02:01:31;;;;;;;6.47;2.33;;;;;;;11.46;100.00;101241.44;6082785;19;20002;-69
2024/01/24 02:03:40;;;;;;;2.40;1.45;;;;;;;11.43;100.00;101247.69;6083171;19;20036;-69
2024/01/24 02:05:47;;;;;;;5.25;1.73;;;;;;;11.43;100.00;101252.09;6083792;19;20066;-70
2024/01/24 02:07:52;;;;;;;8.18;2.25;;;;;;;11.43;100.00;101265.25;6085549;19;20010;-68
2024/01/24 02:10:00;;;;;;;3.78;1.60;;;;;;;11.38;100.00;101247.00;6085501;19;20334;-70
2024/01/24 02:12:05;;;;;;;7.75;1.73;;;;;;;11.36;100.00;101216.41;6084415;19;20055;-70
2024/01/24 02:14:11;;;;;;;6.05;1.92;;;;;;;11.35;100.00;101285.75;6084381;19;20011;-71
2024/01/24 02:16:17;;;;;;;7.32;2.53;;;;;;;11.39;100.00;101282.91;6076490;19;20201;-70
2024/01/24 02:18:25;;;;;;;10.45;2.20;;;;;;;11.34;100.00;101271.69;6084974;19;20369;-70
2024/01/24 02:20:35;;;;;;;7.35;2.50;;;;;;;11.33;100.00;101291.03;6086262;19;20042;-70
2024/01/24 02:22:40;;;;;;;6.22;1.52;;;;;;;11.31;100.00;101306.03;6083443;19;20022;-70
2024/01/24 02:24:47;;;;;;;6.82;2.17;;;;;;;11.31;100.00;101302.53;6083785;19;20039;-68
2024/01/24 02:26:53;;;;;;;4.53;1.60;;;;;;;11.29;100.00;101305.22;6083411;19;20087;-71
2024/01/24 02:28:58;;;;;;;11.82;2.95;;;;;;;11.28;100.00;101292.97;6085186;19;20006;-71
2024/01/24 02:31:03;;;;;;;9.40;2.20;;;;;;;11.24;100.00;101309.78;6083077;19;20007;-69
2024/01/24 02:33:09;;;;;;;6.22;2.03;;;;;;;11.24;100.00;101303.66;6083121;19;20548;-69
2024/01/24 02:35:14;;;;;;;9.55;2.10;;;;;;;11.22;100.00;101298.47;6085142;19;20492;-70
2024/01/24 02:37:21;;;;;;;3.95;1.90;;;;;;;11.19;100.00;101299.44;6085776;19;20459;-71
2024/01/24 02:39:26;;;;;;;7.75;1.80;;;;;;;11.18;100.00;101288.97;6085448;19;20610;-71
2024/01/24 02:41:34;;;;;;;14.40;2.70;;;;;;;11.15;100.00;101310.97;6082420;19;20012;-69
2024/01/24 02:43:39;;;;;;;6.15;1.70;;;;;;;11.12;100.00;101305.81;6083150;19;20002;-69
2024/01/24 02:45:44;;;;;;;9.30;2.33;;;;;;;11.09;100.00;101298.03;6082662;19;20104;-69
2024/01/24 02:47:49;;;;;;;10.10;1.88;;;;;;;11.05;100.00;101317.47;6084536;19;20403;-69
2024/01/24 02:49:52;;;;;;;5.63;2.03;;;;;;;11.02;100.00;101311.47;6084845;19;20020;-69
2024/01/24 02:52:01;;;;;;;;;;;;;;;10.99;100.00;101315.91;6086512;19;20010;-69
2024/01/24 02:54:07;;;;;;;8.10;1.95;;;;;;;10.97;100.00;101301.09;6083174;19;19929;-71
2024/01/24 02:56:12;;;;;;;16.45;2.90;;;;;;;10.93;100.00;101289.84;6083315;19;20010;-69
2024/01/24 02:58:19;;;;;;;6.85;2.17;;;;;;;10.92;100.00;101287.25;6084562;19;20014;-71
2024/01/24 03:00:24;;;;;;;12.05;2.72;;;;;;;10.92;100.00;101327.53;6078841;19;20341;-69
2024/01/24 03:02:30;;;;;;;20.52;2.72;;;;;;;10.88;100.00;101328.56;6082209;19;20251;-71
2024/01/24 03:04:36;;;;;;;8.32;2.20;;;;;;;10.86;100.00;101329.53;6082326;19;20014;-71
2024/01/24 03:06:40;;;;;;;7.45;2.13;;;;;;;10.86;100.00;101335.66;6083649;19;20010;-72
2024/01/24 03:08:54;;;;;;;8.07;2.22;;;;;;;10.82;100.00;101306.88;6085619;19;20007;-70
2024/01/24 03:11:00;;;;;;;12.98;3.00;;;;;;;10.79;100.00;101313.09;6085075;19;20023;-73
2024/01/24 03:13:06;;;;;;;11.30;3.10;;;;;;;10.73;100.00;101301.03;6082665;19;20022;-72
2024/01/24 03:15:14;;;;;;;11.35;2.85;;;;;;;10.73;100.00;101315.94;6083482;19;20010;-69
2024/01/24 03:17:17;;;;;;;13.32;3.53;;;;;;;10.73;100.00;101336.97;6083765;19;20003;-70
2024/01/24 03:19:22;;;;;;;16.25;2.83;;;;;;;10.70;100.00;101339.72;6083538;19;20010;-70
2024/01/24 03:21:27;;;;;;;11.65;2.78;;;;;;;10.64;100.00;101319.75;6083240;19;20125;-69
2024/01/24 03:23:30;;;;;;;15.93;3.35;;;;;;;10.61;100.00;101324.22;6083145;19;20035;-70
2024/01/24 03:25:35;;;;;;;10.02;2.50;;;;;;;10.53;100.00;101359.50;6080647;19;20648;-71
2024/01/24 03:27:40;;;;;;;15.63;3.35;;;;;;;10.52;100.00;101347.25;6082145;19;20462;-72
2024/01/24 03:29:46;;;;;;;16.17;2.75;;;;;;;10.49;100.00;101355.25;6084423;19;20489;-71
2024/01/24 03:31:53;;;;;;;19.20;4.15;;;;;;;10.48;100.00;101347.44;6084193;19;20030;-70
2024/01/24 03:33:58;;;;;;;17.90;3.42;;;;;;;10.43;100.00;101351.97;6081776;19;20034;-71
2024/01/24 03:36:03;;;;;;;18.55;3.30;;;;;;;10.47;100.00;101340.44;6079304;19;20006;-70
2024/01/24 03:38:08;;;;;;;12.07;2.88;;;;;;;10.42;100.00;101339.72;6084632;19;20459;-68
2024/01/24 03:40:14;;;;;;;20.60;3.85;;;;;;;10.38;100.00;101353.88;6081352;19;20007;-70
2024/01/24 03:42:21;;;;;;;11.68;2.58;;;;;;;10.32;100.00;101355.78;6084537;19;20011;-70
2024/01/24 03:44:26;;;;;;;14.38;3.75;;;;;;;10.34;100.00;101353.09;6083340;19;20018;-70
2024/01/24 03:46:32;;;;;;;19.65;3.35;;;;;;;10.38;100.00;101335.50;6076670;19;20085;-69
2024/01/24 03:48:39;;;;;;;19.23;4.18;;;;;;;10.34;100.00;101339.97;6083537;19;20025;-69
2024/01/24 03:50:45;;;;;;;16.65;5.03;;;;;;;10.29;100.00;101350.66;6084438;19;20011;-69
2024/01/24 03:52:51;;;;;;;15.20;4.70;;;;;;;10.28;100.00;101342.78;6076863;19;20443;-68
2024/01/24 03:54:57;;;;;;;20.48;4.07;;;;;;;10.30;100.00;101341.00;6088045;19;20018;-69
2024/01/24 03:56:59;;;;;;;16.73;4.47;;;;;;;10.28;100.00;101359.41;6085151;19;20114;-70
2024/01/24 03:59:04;;;;;;;17.60;3.92;;;;;;;10.25;100.00;101356.00;6085141;19;20014;-69
2024/01/24 04:01:10;;;;;;;30.02;5.38;;;;;;;10.25;100.00;101353.38;6089538;19;20561;-69
2024/01/24 04:03:15;;;;;;;17.20;3.40;;;;;;;10.27;100.00;101351.56;6086265;19;20017;-69
2024/01/24 04:05:23;;;;;;;23.10;3.85;;;;;;;10.29;100.00;101345.38;6087911;19;20314;-71
2024/01/24 04:07:26;;;;;;;13.57;3.97;;;;;;;10.24;100.00;101355.16;6086735;19;20002;-70
2024/01/24 04:09:30;;;;;;;;;;;;;;;10.19;100.00;101357.06;6087420;19;20023;-69
2024/01/24 04:11:33;;;;;;;18.20;4.50;;;;;;;10.20;100.00;101350.03;6087757;19;20012;-70
2024/01/24 04:13:38;;;;;;;19.08;3.80;;;;;;;10.21;100.00;101378.00;6086340;19;20014;-70
2024/01/24 04:15:43;;;;;;;19.58;3.95;;;;;;;10.20;100.00;101365.78;6088886;19;20788;-70
2024/01/24 04:17:49;;;;;;;15.05;3.95;;;;;;;10.22;100.00;101363.97;6086183;19;20417;-72
2024/01/24 04:19:54;;;;;;;24.75;5.03;;;;;;;10.17;100.00;101356.22;6085141;19;20044;-71
2024/01/24 04:22:02;;;;;;;21.70;5.18;;;;;;;10.17;100.00;101368.50;6087316;19;20578;-69
2024/01/24 04:24:09;;;;;;;20.17;4.22;;;;;;;10.18;100.00;101360.56;6087320;19;20014;-68
2024/01/24 04:26:14;;;;;;;25.17;5.38;;;;;;;10.20;100.00;101398.16;6085979;19;20047;-71
2024/01/24 04:28:19;;;;;;;22.10;5.55;;;;;;;10.28;100.00;101387.44;6087427;19;20258;-70
2024/01/24 04:30:24;;;;;;;28.63;5.50;;;;;;;10.27;100.00;101385.72;6087673;19;20010;-70
2024/01/24 04:32:30;;;;;;;19.08;4.20;;;;;;;10.29;100.00;101391.78;6088291;19;20010;-68
2024/01/24 04:34:32;;;;;;;26.92;5.03;;;;;;;10.30;100.00;101389.13;6089359;19;20558;-69
2024/01/24 04:36:38;;;;;;;18.27;4.10;;;;;;;10.33;100.00;101391.66;6084079;19;20405;-69
2024/01/24 04:38:46;;;;;;;23.77;5.10;;;;;;;10.29;100.00;101389.16;6088171;19;20301;-72
2024/01/24 04:40:51;;;;;;;18.50;4.07;;;;;;;10.27;100.00;101389.22;6087623;19;20077;-71
2024/01/24 04:42:53;;;;;;;25.55;5.45;;;;;;;10.29;100.00;101394.41;6087317;19;20680;-70
2024/01/24 04:44:59;;;;;;;17.42;4.28;;;;;;;10.27;100.00;101411.97;6086177;19;20003;-69
2024/01/24 04:47:04;;;;;;;19.02;4.72;;;;;;;10.29;100.00;101418.94;6087492;19;20495;-72
2024/01/24 04:49:09;;;;;;;24.25;4.25;;;;;;;10.29;100.00;101413.69;6085135;19;20006;-70
2024/01/24 04:51:34;;;;;;;22.08;6.28;;;;;;;10.26;100.00;101428.63;6085734;19;20471;-71
2024/01/24 04:53:39;;;;;;;21.90;4.95;;;;;;;10.23;100.00;101412.97;6083440;19;20082;-73
2024/01/24 04:55:47;;;;;;;34.60;6.90;;;;;;;10.23;100.00;101447.09;6087976;19;20078;-70
2024/01/24 04:57:52;;;;;;;23.67;4.25;;;;;;;10.28;100.00;101459.22;6084578;19;20081;-69
2024/01/24 04:59:57;;;;;;;23.10;6.45;;;;;;;10.27;100.00;101448.75;6086047;19;20007;-69
2024/01/24 05:02:06;;;;;;;17.75;4.28;;;;;;;10.25;100.00;101451.41;6087874;19;20050;-71
2024/01/24 05:04:11;;;;;;;17.73;4.40;;;;;;;10.26;100.00;101449.63;6084391;19;20030;-68
2024/01/24 05:06:16;;;;;;;28.88;5.28;;;;;;;10.23;100.00;101457.63;6086739;19;20126;-70
2024/01/24 05:08:21;;;;;;;26.10;5.00;;;;;;;10.24;100.00;101451.44;6085846;19;20079;-69
2024/01/24 05:10:26;;;;;;;25.85;4.97;;;;;;;10.23;100.00;101455.00;6087359;19;20010;-69
2024/01/24 05:12:34;;;;;;;18.20;5.43;;;;;;;10.21;100.00;101430.53;6082939;19;20918;-67
2024/01/24 05:14:40;;;;;;;21.40;4.82;;;;;;;10.17;100.00;101424.50;6081615;19;20006;-71
2024/01/24 05:16:45;;;;;;;16.25;4.78;;;;;;;10.14;100.00;101431.59;6085215;19;20038;-70
2024/01/24 05:18:50;;;;;;;20.08;4.32;;;;;;;10.13;100.00;101416.75;6084806;19;20427;-69
2024/01/24 05:20:55;;;;;;;18.85;5.18;;;;;;;10.09;100.00;101434.38;6085570;19;20007;-69
2024/01/24 05:23:03;;;;;;;26.45;5.68;;;;;;;10.02;100.00;101430.22;6087596;19;20024;-70
2024/01/24 05:25:06;;;;;;;26.73;4.47;;;;;;;9.97;100.00;101450.47;6083006;19;20030;-70
2024/01/24 05:27:11;;;;;;;27.17;5.80;;;;;;;9.86;100.00;101433.25;6083659;19;20006;-70
2024/01/24 05:29:19;;;;;;;29.33;6.13;;;;;;;9.79;100.00;101444.81;6088499;19;20210;-70
2024/01/24 05:31:24;;;;;;;29.75;5.57;;;;;;;9.76;100.00;101429.16;6087077;19;20432;-70
2024/01/24 05:33:30;;;;;;;24.65;4.22;;;;;;;9.70;100.00;101449.50;6084739;19;20542;-73
2024/01/24 05:35:35;;;;;;;25.73;6.50;;;;;;;9.68;100.00;101460.88;6086191;19;20014;-71
2024/01/24 05:37:40;;;;;;;18.90;4.68;;;;;;;9.62;100.00;101474.16;6086772;19;20034;-71
2024/01/24 05:39:45;;;;;;;18.92;4.43;;;;;;;9.62;100.00;101482.03;6085954;19;20020;-68
2024/01/24 05:41:50;;;;;;;25.88;5.47;;;;;;;9.61;100.00;101484.69;6086057;19;20151;-68
2024/01/24 05:43:55;;;;;;;18.38;6.20;;;;;;;9.60;100.00;101496.09;6085060;19;20718;-70
2024/01/24 05:46:03;;;;;;;25.85;5.13;;;;;;;9.57;100.00;101509.31;6087085;19;20014;-69
2024/01/24 05:48:06;;;;;;;32.15;6.07;;;;;;;9.57;100.00;101497.03;6084886;19;20030;-69
2024/01/24 05:50:14;;;;;;;22.58;4.93;;;;;;;9.59;100.00;101521.47;6085695;19;20321;-69
2024/01/24 05:52:19;;;;;;;32.85;5.88;;;;;;;9.54;100.00;101512.88;6083456;19;20042;-69
2024/01/24 05:54:24;;;;;;;25.67;6.93;;;;;;;9.53;100.00;101526.00;6082891;19;20006;-69
2024/01/24 05:56:28;;;;;;;26.65;4.78;;;;;;;9.46;100.00;101522.69;6086740;19;20017;-72
2024/01/24 05:58:33;;;;;;;27.00;6.60;;;;;;;9.39;100.00;101534.22;6087596;19;20097;-71
2024/01/24 06:00:39;;;;;;;27.85;4.75;;;;;;;9.34;100.00;101552.69;6086006;19;20340;-72
2024/01/24 06:02:47;;;;;;;29.58;6.10;;;;;;;9.30;100.00;101558.06;6086294;19;20010;-71
2024/01/24 06:04:52;;;;;;;28.92;5.43;;;;;;;9.25;100.00;101552.06;6083103;19;20039;-70
2024/01/24 06:07:00;;;;;;;24.08;4.90;;;;;;;9.22;100.00;101566.97;6086573;19;20489;-71
2024/01/24 06:09:03;;;;;;;17.67;3.88;;;;;;;9.23;100.00;101566.06;6084392;19;20507;-69
2024/01/24 06:11:09;;;;;;;30.67;5.90;;;;;;;9.19;100.00;101566.19;6086867;19;20034;-71
2024/01/24 06:13:14;;;;;;;23.52;6.38;;;;;;;9.13;100.00;101574.19;6084538;19;20475;-73
2024/01/24 06:15:21;;;;;;;32.58;7.72;;;;;;;9.06;100.00;101565.59;6085235;19;20003;-69
2024/01/24 06:17:27;;;;;;;22.63;4.95;;;;;;;9.02;100.00;101577.91;6082688;19;20014;-70
2024/01/24 06:19:34;;;;;;;26.73;4.72;;;;;;;8.96;100.00;101590.28;6084405;19;20015;-69
2024/01/24 06:21:39;;;;;;;29.63;5.97;;;;;;;8.91;100.00;101573.81;6085573;19;20550;-69
2024/01/24 06:23:44;;;;;;;22.98;5.15;;;;;;;8.90;100.00;101583.44;6083438;19;20003;-73
2024/01/24 06:25:49;;;;;;;29.60;6.10;;;;;;;8.84;100.00;101587.94;6084575;19;20007;-71
2024/01/24 06:27:54;;;;;;;24.55;5.88;;;;;;;8.82;100.00;101592.34;6084082;19;20392;-69
2024/01/24 06:30:01;;;;;;;29.05;5.93;;;;;;;8.80;100.00;101597.63;6083650;19;20023;-70
2024/01/24 06:32:26;;;;;;;42.83;6.35;;;;;;;8.79;100.00;101609.88;6084005;19;20052;-73
2024/01/24 06:34:34;;;;;;;22.20;5.57;;;;;;;8.78;100.00;101617.75;6085907;19;20006;-69
2024/01/24 06:36:39;;;;;;;33.83;7.07;;;;;;;8.77;100.00;101613.41;6081984;19;20007;-71
2024/01/24 06:38:44;;;;;;;26.60;6.32;;;;;;;8.73;100.00;101622.22;6084283;19;20484;-69
2024/01/24 06:40:49;;;;;;;23.70;4.70;;;;;;;8.74;100.00;101630.06;6085514;19;20024;-69
2024/01/24 06:42:54;;;;;;;18.20;5.30;;;;;;;8.68;100.00;101630.16;6078581;19;20007;-69
2024/01/24 06:45:01;;;;;;;18.35;3.63;;;;;;;8.70;100.00;101654.59;6086204;19;20073;-69
2024/01/24 06:47:07;;;;;;;21.10;4.88;;;;;;;8.71;100.00;101660.69;6082472;19;20027;-69
2024/01/24 06:49:12;;;;;;;25.48;6.68;;;;;;;8.70;100.00;101665.06;6085123;19;20003;-69
2024/01/24 06:51:20;;;;;;;29.95;6.97;;;;;;;8.68;100.00;101652.88;6075818;19;20007;-68
2024/01/24 06:53:25;;;;;;;36.40;5.47;;;;;;;8.71;100.00;101651.06;6077165;19;20007;-73
2024/01/24 06:55:30;;;;;;;27.20;5.30;;;;;;;8.73;100.00;101636.19;6080688;19;20031;-69
2024/01/24 06:57:33;;;;;;;24.40;5.65;;;;;;;8.66;100.00;101658.19;6080731;19;19999;-69
2024/01/24 06:59:41;;;;;;;21.92;5.78;;;;;;;8.67;100.00;101638.94;6076960;19;20525;-69
2024/01/24 07:01:46;;;;;;;25.88;6.07;;;;;;;8.64;100.00;101633.75;6084282;19;20023;-69
2024/01/24 07:03:51;;;;;;;39.55;6.63;;;;;;;8.68;100.00;101645.03;6082984;19;20038;-69
2024/01/24 07:05:57;;;;;;;25.08;6.53;;;;;;;8.66;100.00;101657.28;6082711;19;20467;-70
2024/01/24 07:08:05;;;;;;;35.13;5.63;;;;;;;8.73;100.00;101662.38;6083155;19;20007;-71
2024/01/24 07:10:12;;;;;;;30.02;6.63;;;;;;;8.75;100.00;101638.78;6084986;19;20018;-69
2024/01/24 07:12:17;;;;;;;19.73;5.57;;;;;;;8.77;100.00;101650.97;6082134;19;20339;-72
2024/01/24 07:14:22;;;;;;;31.30;5.20;;;;;;;8.70;100.00;101651.97;6083672;19;20031;-73
2024/01/24 07:16:27;;;;;;;25.13;5.80;;;;;;;8.71;100.00;101639.72;6082586;19;20009;-72
2024/01/24 07:18:31;;;;;;;19.33;4.18;;;;;;;8.71;100.00;101672.03;6084737;19;20011;-73
2024/01/24 07:20:36;;;;;;;22.20;5.30;;;;;;;8.77;100.00;101671.94;6084442;19;20832;-71
2024/01/24 07:22:41;;;;;;;21.58;4.65;;;;;;;8.73;100.00;101677.25;6083432;19;20010;-71
2024/01/24 07:24:49;;;;;;;24.52;5.82;;;;;;;8.77;100.00;101677.16;6080242;19;20010;-69
2024/01/24 07:26:54;;;;;;;23.00;5.55;;;;;;;8.74;100.00;101665.88;6084448;19;20032;-71
2024/01/24 07:29:00;;;;;;;24.35;5.38;;;;;;;8.74;100.00;101682.47;6082443;19;20006;-70
2024/01/24 07:31:06;;;;;;;21.75;4.80;;;;;;;8.71;100.00;101674.66;6083042;19;20010;-68
2024/01/24 07:33:11;;;;;;;21.63;5.25;;;;;;;8.81;100.00;101679.72;6081608;19;20010;-71
2024/01/24 07:35:16;;;;;;;30.35;5.20;;;;;;;8.74;100.00;101700.81;6081630;19;20830;-73
2024/01/24 07:37:21;;;;;;;22.45;5.30;;;;;;;8.79;100.00;101706.84;6080578;19;20455;-71
2024/01/24 07:39:28;;;;;;;33.92;6.45;;;;;;;8.76;100.00;101730.47;6085143;19;20463;-72
2024/01/24 07:41:36;;;;;;;31.98;6.75;;;;;;;8.74;100.00;101729.66;6082793;19;20467;-71
2024/01/24 07:43:42;;;;;;;25.73;4.45;;;;;;;8.75;100.00;101727.88;6082498;19;20022;-69
2024/01/24 07:45:45;;;;;;;27.58;5.88;;;;;;;8.84;100.00;101739.94;6078884;19;20459;-71
2024/01/24 07:47:51;;;;;;;24.20;5.40;;;;;;;8.81;100.00;101734.75;6082525;19;20039;-69
2024/01/24 07:49:56;;;;;;;20.05;5.25;;;;;;;8.82;100.00;101726.00;6080156;19;20367;-69
2024/01/24 07:52:03;;;;;;;29.73;6.13;;;;;;;8.88;100.00;101749.50;6083536;19;20010;-71
2024/01/24 07:54:08;;;;;;;31.38;6.15;;;;;;;8.84;100.00;101761.75;6080815;19;20475;-72
2024/01/24 07:56:14;;;;;;;28.92;5.63;;;;;;;8.84;100.00;101763.53;6083660;19;20455;-69
2024/01/24 07:58:32;;;;;;;20.63;4.72;;;;;;;8.85;100.00;101783.63;6081448;19;20006;-69
2024/01/24 08:00:38;;;;;;;23.42;6.13;;;;;;;8.82;100.00;101779.31;6081411;19;20415;-70
2024/01/24 08:02:44;;;;;;;25.38;5.47;;;;;;;8.77;100.00;101768.88;6082242;19;20017;-71
2024/01/24 08:04:51;;;;;;;21.92;5.32;;;;;;;8.82;100.00;101771.44;6082360;19;20015;-70
2024/01/24 08:06:57;;;;;;;18.95;4.95;;;;;;;8.80;100.00;101770.59;6073456;19;20722;-71
2024/01/24 08:09:03;;;;;;;18.88;4.88;;;;;;;8.81;100.00;101784.56;6082969;19;20027;-71
2024/01/24 08:11:09;;;;;;;33.30;6.05;;;;;;;8.77;100.00;101797.72;6082074;19;20077;-71
2024/01/24 08:13:14;;;;;;;28.20;5.30;;;;;;;8.85;100.00;101796.72;6081582;19;20014;-70
2024/01/24 08:15:22;;;;;;;36.67;5.30;;;;;;;8.79;100.00;101795.94;6081454;19;20055;-71
2024/01/24 08:17:28;;;;;;;30.92;6.10;;;;;;;8.79;100.00;101816.03;6083213;19;20124;-70
2024/01/24 08:19:30;;;;;;;31.33;5.35;;;;;;;8.83;100.00;101798.50;6083852;19;20106;-70
2024/01/24 08:21:35;;;;;;;;;;;;;;;8.82;100.00;101810.75;6080525;19;20084;-70
2024/01/24 08:23:41;;;;;;;26.20;5.53;;;;;;;8.84;100.00;101805.47;6082429;19;19915;-70
2024/01/24 08:25:55;;;;;;;35.22;6.20;;;;;;;8.81;100.00;101810.75;6079787;19;20395;-70
2024/01/24 08:28:01;;;;;;;18.98;4.85;;;;;;;8.78;100.00;101809.06;6082946;19;20436;-71
2024/01/24 08:30:07;;;;;;;33.03;7.30;;;;;;;8.79;100.00;101822.16;6082282;19;20554;-71
2024/01/24 08:32:12;;;;;;;23.52;4.95;;;;;;;8.85;100.00;101815.94;6081772;19;20030;-72
2024/01/24 08:34:17;;;;;;;34.22;5.93;;;;;;;8.91;100.00;101830.69;6082632;19;20030;-71
2024/01/24 08:36:22;;;;;;;23.40;5.07;;;;;;;8.92;100.00;101819.28;6082064;19;20442;-71
2024/01/24 08:38:28;;;;;;;20.33;5.22;;;;;;;9.00;100.00;101831.41;6082739;19;20033;-71
2024/01/24 08:40:34;;;;;;;27.85;5.57;;;;;;;8.97;100.00;101831.41;6084900;19;20535;-72
2024/01/24 08:42:38;;;;;;;21.45;4.65;;;;;;;8.92;100.00;101821.91;6086008;19;20010;-70
2024/01/24 08:44:43;;;;;;;16.48;4.30;;;;;;;8.95;100.00;101842.81;6086724;19;20478;-71
2024/01/24 08:46:50;;;;;;;31.38;4.80;;;;;;;8.97;100.00;101843.66;6087259;19;20003;-70
2024/01/24 08:48:58;;;;;;;28.20;6.00;;;;;;;8.93;100.00;101855.97;6086047;19;20035;-70
2024/01/24 08:51:01;;;;;;;30.35;5.75;;;;;;;9.01;100.00;101861.94;6086838;19;20086;-72
2024/01/24 08:53:06;;;;;;;19.67;5.00;;;;;;;8.99;100.00;101866.34;6081014;19;20018;-69
2024/01/24 08:55:13;;;;;;;23.23;4.85;;;;;;;8.97;100.00;101869.88;6087452;19;20073;-71
2024/01/24 08:57:19;;;;;;;19.05;4.80;;;;;;;9.04;100.00;101882.00;6089647;19;20438;-72
2024/01/24 08:59:24;;;;;;;27.05;5.75;;;;;;;9.06;100.00;101867.13;6085360;19;20028;-73
2024/01/24 09:01:30;;;;;;;21.70;4.38;;;;;;;9.03;100.00;101864.56;6086505;19;20021;-71
2024/01/24 09:03:36;;;;;;;19.38;3.92;;;;;;;9.03;100.00;101896.03;6088818;19;20010;-70
2024/01/24 09:05:44;;;;;;;24.70;4.25;;;;;;;9.07;100.00;101897.69;6088781;19;20034;-69
2024/01/24 09:07:49;;;;;;;26.85;5.13;;;;;;;9.06;100.00;101905.56;6086652;19;20034;-72
2024/01/24 09:09:54;;;;;;;26.70;5.38;;;;;;;9.05;100.00;101895.97;6088215;19;20003;-71
2024/01/24 09:12:00;;;;;;;28.48;5.70;;;;;;;9.11;100.00;101912.47;6086060;19;20003;-71
2024/01/24 09:14:05;;;;;;;20.25;4.97;;;;;;;9.13;100.00;101912.44;6089693;19;20035;-72
2024/01/24 09:16:10;;;;;;;21.83;5.15;;;;;;;9.11;100.00;101935.19;6087698;19;20086;-71
2024/01/24 09:18:17;;;;;;;27.88;5.22;;;;;;;9.08;100.00;101933.47;6084076;19;20341;-73
2024/01/24 09:20:23;;;;;;;18.00;5.95;;;;;;;9.08;100.00;101933.47;6087427;19;20519;-73
2024/01/24 09:22:28;;;;;;;25.48;5.55;;;;;;;9.10;100.00;101947.44;6085684;19;20078;-73
2024/01/24 09:24:33;;;;;;;24.98;4.22;;;;;;;9.10;100.00;101952.69;6085230;19;20761;-71
2024/01/24 09:26:39;;;;;;;20.13;3.83;;;;;;;9.09;100.00;101961.47;6087147;19;20010;-72
2024/01/24 09:28:44;;;;;;;19.20;4.45;;;;;;;9.04;100.00;101942.31;6085457;19;20010;-72
2024/01/24 09:30:50;;;;;;;22.00;5.60;;;;;;;9.08;100.00;101951.84;6083000;19;20017;-70
2024/01/24 09:32:55;;;;;;;16.75;3.58;;;;;;;9.07;100.00;101937.00;6083570;19;20018;-72
2024/01/24 09:34:58;;;;;;;31.00;5.90;;;;;;;9.12;100.00;101945.66;6086459;19;20002;-73
2024/01/24 09:37:04;;;;;;;29.70;4.72;;;;;;;9.10;100.00;101939.56;6085921;19;20075;-72